Time;durP1;ratioP1;P1;durP2;ratioP2;P2;SDS_P1;SDS_P2;PMS_P1;PMS_P2;Temp;Humidity;BMP_temperature;BMP_pressure;BME280_temperature;BME280_humidity;BME280_pressure;Samples;Min_cycle;Max_cycle;Signal;HPM_P1;HPM_P2
2021/03/09 00:00:11;;;;;;;;;;;19.80;35.20;;;;;;500392;237;1171;-72
2021/03/09 00:02:12;;;;;;;;;;;19.80;35.20;;;;;;500360;237;2163;-73
2021/03/09 00:04:15;;;;;;;;;;;19.90;35.10;;;;;;500396;237;1146;-73
2021/03/09 00:06:17;;;;;;;;;;;19.80;35.30;;;;;;500319;237;1262;-72
2021/03/09 00:08:18;;;;;;;;;;;19.70;35.30;;;;;;500329;237;1135;-73
2021/03/09 00:10:19;;;;;;;;;;;19.70;35.50;;;;;;500327;237;989;-73
2021/03/09 00:12:20;;;;;;;;;;;19.70;35.30;;;;;;500305;237;1105;-72
2021/03/09 00:14:22;;;;;;;;;;;19.70;35.50;;;;;;500337;237;1143;-72
2021/03/09 00:16:23;;;;;;;;;;;19.80;35.40;;;;;;500276;237;1261;-72
2021/03/09 00:18:24;;;;;;;;;;;19.80;35.30;;;;;;500377;237;1088;-72
2021/03/09 00:20:25;;;;;;;;;;;19.80;35.40;;;;;;500386;237;965;-73
2021/03/09 00:22:27;;;;;;;;;;;19.70;35.30;;;;;;500346;237;2128;-73
2021/03/09 00:24:28;;;;;;;;;;;19.70;35.40;;;;;;500353;237;1003;-73
2021/03/09 00:26:29;;;;;;;;;;;19.70;35.40;;;;;;500269;237;1638;-73
2021/03/09 00:28:31;;;;;;;;;;;19.70;35.30;;;;;;500343;237;1151;-72
2021/03/09 00:30:32;;;;;;;;;;;19.70;35.00;;;;;;500375;237;1161;-73
2021/03/09 00:32:33;;;;;;;;;;;19.70;35.30;;;;;;500427;237;1182;-72
2021/03/09 00:34:34;;;;;;;;;;;19.60;35.50;;;;;;500373;237;953;-72
2021/03/09 00:36:36;;;;;;;;;;;19.60;35.50;;;;;;500331;237;1231;-72
2021/03/09 00:38:37;;;;;;;;;;;19.70;35.40;;;;;;500350;237;948;-72
2021/03/09 00:40:38;;;;;;;;;;;19.70;35.50;;;;;;500336;237;944;-72
2021/03/09 00:42:40;;;;;;;;;;;19.70;35.50;;;;;;500283;237;2167;-73
2021/03/09 00:44:41;;;;;;;;;;;19.60;35.50;;;;;;500371;237;1138;-72
2021/03/09 00:46:42;;;;;;;;;;;19.60;35.70;;;;;;500286;237;1217;-72
2021/03/09 00:48:43;;;;;;;;;;;19.70;35.50;;;;;;500468;237;1088;-72
2021/03/09 00:50:45;;;;;;;;;;;19.60;35.60;;;;;;500431;237;953;-73
2021/03/09 00:52:46;;;;;;;;;;;19.60;35.40;;;;;;500492;237;1066;-72
2021/03/09 00:54:47;;;;;;;;;;;19.60;35.40;;;;;;500335;237;1056;-72
2021/03/09 00:56:48;;;;;;;;;;;19.60;34.90;;;;;;500435;237;1135;-72
2021/03/09 00:58:50;;;;;;;;;;;19.60;35.50;;;;;;500380;237;1244;-72
2021/03/09 01:00:51;;;;;;;;;;;19.60;35.60;;;;;;500364;237;1147;-72
2021/03/09 01:02:52;;;;;;;;;;;19.60;35.60;;;;;;500478;237;2175;-73
2021/03/09 01:04:54;;;;;;;;;;;19.50;35.60;;;;;;500395;237;1054;-73
2021/03/09 01:06:55;;;;;;;;;;;19.50;35.70;;;;;;500500;237;1216;-72
2021/03/09 01:08:56;;;;;;;;;;;19.50;35.70;;;;;;500407;237;962;-72
2021/03/09 01:10:57;;;;;;;;;;;19.50;35.70;;;;;;500364;237;1238;-73
2021/03/09 01:12:59;;;;;;;;;;;19.60;35.60;;;;;;500345;237;1162;-72
2021/03/09 01:15:00;;;;;;;;;;;19.60;35.50;;;;;;500431;237;1162;-72
2021/03/09 01:17:01;;;;;;;;;;;19.60;35.60;;;;;;500387;237;1100;-72
2021/03/09 01:19:02;;;;;;;;;;;19.60;35.50;;;;;;500422;237;953;-72
2021/03/09 01:21:04;;;;;;;;;;;19.60;35.60;;;;;;500261;237;1189;-72
2021/03/09 01:23:05;;;;;;;;;;;19.60;35.50;;;;;;500395;237;2188;-72
2021/03/09 01:25:06;;;;;;;;;;;19.60;35.50;;;;;;500371;237;986;-72
2021/03/09 01:27:11;;;;;;;;;;;19.70;35.30;;;;;;500430;237;977;-72
2021/03/09 01:29:11;;;;;;;;;;;19.70;35.20;;;;;;500338;237;941;-72
2021/03/09 01:31:13;;;;;;;;;;;19.70;35.20;;;;;;500321;237;1127;-72
2021/03/09 01:33:14;;;;;;;;;;;19.60;35.30;;;;;;500400;237;1033;-72
2021/03/09 01:35:15;;;;;;;;;;;19.50;35.40;;;;;;500372;237;973;-72
2021/03/09 01:37:16;;;;;;;;;;;19.60;35.40;;;;;;500370;237;1024;-72
2021/03/09 01:39:18;;;;;;;;;;;19.40;35.50;;;;;;500327;237;980;-72
2021/03/09 01:41:19;;;;;;;;;;;19.50;35.60;;;;;;500322;237;2324;-73
2021/03/09 01:43:20;;;;;;;;;;;19.40;35.60;;;;;;500413;237;1046;-72
2021/03/09 01:45:22;;;;;;;;;;;19.40;35.60;;;;;;500370;237;1312;-72
2021/03/09 01:47:23;;;;;;;;;;;19.50;35.60;;;;;;500325;237;1053;-72
2021/03/09 01:49:25;;;;;;;;;;;19.50;35.60;;;;;;500410;237;1001;-73
2021/03/09 01:51:25;;;;;;;;;;;19.50;35.00;;;;;;500287;237;1068;-72
2021/03/09 01:53:27;;;;;;;;;;;19.50;35.30;;;;;;500392;237;1014;-72
2021/03/09 01:55:28;;;;;;;;;;;19.50;35.50;;;;;;500369;237;982;-72
2021/03/09 01:57:29;;;;;;;;;;;19.50;35.60;;;;;;500433;237;1109;-72
2021/03/09 01:59:31;;;;;;;;;;;19.40;35.60;;;;;;500436;237;1017;-72
2021/03/09 02:01:32;;;;;;;;;;;19.50;35.50;;;;;;500406;237;2180;-72
2021/03/09 02:03:33;;;;;;;;;;;19.50;35.50;;;;;;500439;237;1048;-72
2021/03/09 02:05:34;;;;;;;;;;;19.50;35.40;;;;;;500348;237;965;-72
2021/03/09 02:07:36;;;;;;;;;;;19.40;35.50;;;;;;500391;237;1026;-72
2021/03/09 02:09:37;;;;;;;;;;;19.40;35.60;;;;;;500383;237;938;-72
2021/03/09 02:11:38;;;;;;;;;;;19.50;35.40;;;;;;500347;237;1219;-72
2021/03/09 02:13:40;;;;;;;;;;;19.50;35.40;;;;;;500408;237;1281;-73
2021/03/09 02:15:41;;;;;;;;;;;19.40;35.40;;;;;;500355;237;1187;-72
2021/03/09 02:17:42;;;;;;;;;;;19.40;35.50;;;;;;500367;237;1041;-73
2021/03/09 02:19:43;;;;;;;;;;;19.40;35.50;;;;;;500323;237;944;-73
2021/03/09 02:21:45;;;;;;;;;;;19.40;35.50;;;;;;500317;237;2192;-73
2021/03/09 02:23:46;;;;;;;;;;;19.40;35.60;;;;;;500361;237;1226;-72
2021/03/09 02:25:47;;;;;;;;;;;19.40;35.50;;;;;;500364;237;1220;-72
2021/03/09 02:27:48;;;;;;;;;;;19.30;35.60;;;;;;500367;237;986;-72
2021/03/09 02:29:50;;;;;;;;;;;19.40;35.50;;;;;;500374;237;1036;-73
2021/03/09 02:31:51;;;;;;;;;;;19.40;35.40;;;;;;500306;237;1503;-73
2021/03/09 02:33:53;;;;;;;;;;;19.40;35.30;;;;;;500347;237;962;-72
2021/03/09 02:35:54;;;;;;;;;;;19.40;35.40;;;;;;500358;237;1436;-72
2021/03/09 02:37:55;;;;;;;;;;;19.30;35.50;;;;;;500372;237;953;-72
2021/03/09 02:39:57;;;;;;;;;;;19.40;35.40;;;;;;500410;237;934;-72
2021/03/09 02:41:58;;;;;;;;;;;19.30;35.60;;;;;;500342;237;2136;-72
2021/03/09 02:43:59;;;;;;;;;;;19.30;35.50;;;;;;500406;237;938;-72
2021/03/09 02:46:00;;;;;;;;;;;19.30;35.20;;;;;;500339;237;1225;-72
2021/03/09 02:48:02;;;;;;;;;;;19.30;35.30;;;;;;500396;237;931;-72
2021/03/09 02:50:03;;;;;;;;;;;19.30;35.50;;;;;;500359;237;1203;-72
2021/03/09 02:52:04;;;;;;;;;;;19.30;35.50;;;;;;500408;237;937;-72
2021/03/09 02:54:05;;;;;;;;;;;19.30;35.60;;;;;;500368;237;1003;-72
2021/03/09 02:56:07;;;;;;;;;;;19.40;35.40;;;;;;500263;237;1073;-72
2021/03/09 02:58:08;;;;;;;;;;;19.30;35.50;;;;;;500371;237;961;-73
2021/03/09 03:00:10;;;;;;;;;;;19.30;35.40;;;;;;500381;237;1085;-72
2021/03/09 03:02:11;;;;;;;;;;;19.30;35.50;;;;;;500295;237;2194;-72
2021/03/09 03:04:12;;;;;;;;;;;19.30;35.50;;;;;;500419;237;974;-72
2021/03/09 03:06:13;;;;;;;;;;;19.30;35.50;;;;;;500353;237;1069;-72
2021/03/09 03:08:15;;;;;;;;;;;19.30;35.30;;;;;;500390;237;1202;-72
2021/03/09 03:10:16;;;;;;;;;;;19.20;35.50;;;;;;500439;237;1057;-72
2021/03/09 03:12:17;;;;;;;;;;;19.20;35.50;;;;;;500429;237;1095;-72
2021/03/09 03:14:18;;;;;;;;;;;19.20;35.50;;;;;;500368;237;1057;-72
2021/03/09 03:16:20;;;;;;;;;;;19.20;35.50;;;;;;500307;237;1096;-72
2021/03/09 03:18:21;;;;;;;;;;;19.20;35.50;;;;;;500330;237;915;-73
2021/03/09 03:20:22;;;;;;;;;;;19.20;35.40;;;;;;500331;237;1155;-73
2021/03/09 03:22:24;;;;;;;;;;;19.20;35.40;;;;;;500379;237;2187;-73
2021/03/09 03:24:25;;;;;;;;;;;19.10;35.50;;;;;;500296;237;1120;-72
2021/03/09 03:26:26;;;;;;;;;;;19.30;35.40;;;;;;500245;237;1146;-72
2021/03/09 03:28:27;;;;;;;;;;;19.30;35.30;;;;;;500415;237;1036;-72
2021/03/09 03:30:29;;;;;;;;;;;19.30;35.30;;;;;;500361;237;932;-72
2021/03/09 03:32:30;;;;;;;;;;;19.30;35.40;;;;;;500250;237;1175;-72
2021/03/09 03:34:31;;;;;;;;;;;19.20;35.50;;;;;;500358;237;972;-72
2021/03/09 03:36:32;;;;;;;;;;;19.10;35.60;;;;;;500265;237;1153;-72
2021/03/09 03:38:34;;;;;;;;;;;19.10;35.60;;;;;;500340;237;1008;-72
2021/03/09 03:40:35;;;;;;;;;;;19.10;35.50;;;;;;500334;237;1023;-73
2021/03/09 03:42:36;;;;;;;;;;;19.10;35.50;;;;;;500304;237;2184;-72
2021/03/09 03:44:38;;;;;;;;;;;19.10;35.60;;;;;;500416;237;1067;-72
2021/03/09 03:46:39;;;;;;;;;;;19.10;35.70;;;;;;500319;237;1210;-72
2021/03/09 03:48:40;;;;;;;;;;;19.10;35.40;;;;;;500358;237;1029;-72
2021/03/09 03:50:41;;;;;;;;;;;19.10;35.50;;;;;;500385;237;952;-72
2021/03/09 03:52:43;;;;;;;;;;;19.00;35.70;;;;;;500379;237;1082;-73
2021/03/09 03:54:44;;;;;;;;;;;19.00;35.70;;;;;;500390;237;944;-72
2021/03/09 03:56:45;;;;;;;;;;;19.10;35.70;;;;;;500295;237;1165;-72
2021/03/09 03:58:47;;;;;;;;;;;19.00;35.80;;;;;;500407;237;971;-72
2021/03/09 04:00:48;;;;;;;;;;;19.10;35.80;;;;;;500370;237;1091;-72
2021/03/09 04:02:49;;;;;;;;;;;19.00;35.90;;;;;;500422;237;2172;-72
2021/03/09 04:04:50;;;;;;;;;;;19.00;35.80;;;;;;500336;237;1047;-72
2021/03/09 04:06:52;;;;;;;;;;;19.00;35.80;;;;;;500376;237;1162;-72
2021/03/09 04:08:53;;;;;;;;;;;19.00;35.90;;;;;;500369;237;918;-72
2021/03/09 04:10:54;;;;;;;;;;;19.00;35.70;;;;;;500380;237;1012;-72
2021/03/09 04:12:55;;;;;;;;;;;19.00;35.80;;;;;;500429;237;1106;-72
2021/03/09 04:14:57;;;;;;;;;;;19.00;35.70;;;;;;500420;237;1016;-72
2021/03/09 04:16:58;;;;;;;;;;;19.00;35.70;;;;;;500410;237;1213;-72
2021/03/09 04:19:00;;;;;;;;;;;19.00;35.80;;;;;;500345;237;942;-73
2021/03/09 04:21:05;;;;;;;;;;;19.10;35.80;;;;;;500318;237;1197;-73
2021/03/09 04:23:06;;;;;;;;;;;19.10;35.70;;;;;;500377;237;2188;-73
2021/03/09 04:25:07;;;;;;;;;;;19.10;35.70;;;;;;500422;237;936;-72
2021/03/09 04:27:20;;;;;;;;;;;19.10;35.90;;;;;;500366;237;988;-73
2021/03/09 04:29:10;;;;;;;;;;;19.00;35.80;;;;;;500355;237;1326;-73
2021/03/09 04:31:11;;;;;;;;;;;19.10;35.80;;;;;;500336;237;1137;-72
2021/03/09 04:33:12;;;;;;;;;;;19.00;35.80;;;;;;500462;237;1178;-72
2021/03/09 04:35:14;;;;;;;;;;;19.00;35.80;;;;;;500393;237;986;-72
2021/03/09 04:37:15;;;;;;;;;;;19.00;35.80;;;;;;500284;237;1140;-72
2021/03/09 04:39:16;;;;;;;;;;;19.00;35.90;;;;;;500439;237;1049;-72
2021/03/09 04:41:17;;;;;;;;;;;18.90;35.80;;;;;;500478;237;1144;-72
2021/03/09 04:43:19;;;;;;;;;;;19.00;35.80;;;;;;500447;237;2183;-72
2021/03/09 04:45:20;;;;;;;;;;;19.10;35.70;;;;;;500367;237;1076;-72
2021/03/09 04:47:21;;;;;;;;;;;19.00;35.50;;;;;;500312;237;1197;-72
2021/03/09 04:49:23;;;;;;;;;;;19.00;35.50;;;;;;500394;237;1005;-72
2021/03/09 04:51:24;;;;;;;;;;;19.00;35.70;;;;;;500353;237;1213;-73
2021/03/09 04:53:25;;;;;;;;;;;18.90;35.80;;;;;;500346;237;938;-72
2021/03/09 04:55:26;;;;;;;;;;;19.00;35.80;;;;;;500418;237;1219;-72
2021/03/09 04:57:28;;;;;;;;;;;19.00;35.80;;;;;;500365;237;975;-72
2021/03/09 04:59:29;;;;;;;;;;;18.90;35.90;;;;;;500386;237;1097;-73
2021/03/09 05:01:30;;;;;;;;;;;18.90;35.80;;;;;;500293;237;1236;-73
2021/03/09 05:03:32;;;;;;;;;;;18.90;35.90;;;;;;500389;237;2187;-73
2021/03/09 05:05:33;;;;;;;;;;;18.90;36.00;;;;;;500368;237;933;-72
2021/03/09 05:07:34;;;;;;;;;;;18.90;35.80;;;;;;500312;237;982;-72
2021/03/09 05:09:37;;;;;;;;;;;18.90;35.90;;;;;;500261;237;1009;-72
2021/03/09 05:11:38;;;;;;;;;;;19.00;35.80;;;;;;500304;237;2276;-72
2021/03/09 05:13:39;;;;;;;;;;;18.90;35.80;;;;;;500314;237;1056;-72
2021/03/09 05:15:41;;;;;;;;;;;18.90;35.70;;;;;;500358;237;1077;-73
2021/03/09 05:17:42;;;;;;;;;;;18.90;35.80;;;;;;500336;237;1269;-73
2021/03/09 05:19:43;;;;;;;;;;;18.90;35.80;;;;;;500341;237;1116;-73
2021/03/09 05:21:44;;;;;;;;;;;18.90;35.70;;;;;;500285;237;954;-73
2021/03/09 05:23:46;;;;;;;;;;;18.80;35.70;;;;;;500309;237;2168;-73
2021/03/09 05:25:47;;;;;;;;;;;19.00;35.50;;;;;;500252;237;999;-73
2021/03/09 05:27:48;;;;;;;;;;;19.00;35.50;;;;;;500254;237;1070;-73
2021/03/09 05:29:50;;;;;;;;;;;18.90;35.50;;;;;;500308;237;1032;-73
2021/03/09 05:31:51;;;;;;;;;;;18.80;35.70;;;;;;500229;237;1070;-72
2021/03/09 05:33:52;;;;;;;;;;;18.70;35.90;;;;;;500203;237;1201;-73
2021/03/09 05:35:53;;;;;;;;;;;18.60;36.20;;;;;;500144;237;1066;-72
2021/03/09 05:37:55;;;;;;;;;;;18.50;36.30;;;;;;500147;237;1069;-73
2021/03/09 05:39:56;;;;;;;;;;;18.50;36.40;;;;;;500209;237;1026;-73
2021/03/09 05:41:57;;;;;;;;;;;18.50;36.50;;;;;;500195;237;1132;-73
2021/03/09 05:43:58;;;;;;;;;;;18.60;36.40;;;;;;500144;237;2219;-73
2021/03/09 05:46:00;;;;;;;;;;;18.50;36.40;;;;;;500010;237;1106;-73
2021/03/09 05:48:01;;;;;;;;;;;18.50;35.70;;;;;;500103;237;1188;-73
2021/03/09 05:50:02;;;;;;;;;;;18.60;36.40;;;;;;500099;237;969;-73
2021/03/09 05:52:04;;;;;;;;;;;18.60;36.50;;;;;;500180;237;1120;-73
2021/03/09 05:54:05;;;;;;;;;;;18.60;36.40;;;;;;500213;237;995;-73
2021/03/09 05:56:06;;;;;;;;;;;18.70;36.20;;;;;;500223;237;1205;-73
2021/03/09 05:58:07;;;;;;;;;;;18.70;36.30;;;;;;500201;237;1180;-73
2021/03/09 06:00:09;;;;;;;;;;;18.60;36.30;;;;;;500176;237;951;-73
2021/03/09 06:02:10;;;;;;;;;;;18.70;36.20;;;;;;500104;237;1293;-72
2021/03/09 06:04:11;;;;;;;;;;;18.70;36.30;;;;;;500121;237;2133;-72
2021/03/09 06:06:13;;;;;;;;;;;18.70;36.30;;;;;;500017;237;1015;-72
2021/03/09 06:08:14;;;;;;;;;;;18.60;36.30;;;;;;500073;237;1045;-73
2021/03/09 06:10:15;;;;;;;;;;;18.70;36.30;;;;;;500043;237;980;-73
2021/03/09 06:12:17;;;;;;;;;;;18.70;36.30;;;;;;500091;237;1093;-72
2021/03/09 06:14:18;;;;;;;;;;;18.70;36.30;;;;;;499997;237;1033;-72
2021/03/09 06:16:19;;;;;;;;;;;18.60;36.30;;;;;;499887;237;1039;-72
2021/03/09 06:18:21;;;;;;;;;;;18.70;36.20;;;;;;499948;234;1339;-72
2021/03/09 06:20:22;;;;;;;;;;;18.60;36.30;;;;;;500077;237;1082;-72
2021/03/09 06:22:23;;;;;;;;;;;18.70;36.20;;;;;;500148;237;1199;-72
2021/03/09 06:24:25;;;;;;;;;;;18.70;36.20;;;;;;500036;237;2184;-72
2021/03/09 06:26:26;;;;;;;;;;;18.80;36.10;;;;;;499974;237;1130;-72
2021/03/09 06:28:27;;;;;;;;;;;18.80;36.10;;;;;;499761;237;1062;-72
2021/03/09 06:30:28;;;;;;;;;;;18.80;36.20;;;;;;499981;237;1102;-72
2021/03/09 06:32:30;;;;;;;;;;;18.80;36.10;;;;;;499954;237;1141;-72
2021/03/09 06:34:31;;;;;;;;;;;18.80;36.10;;;;;;499915;237;1196;-72
2021/03/09 06:36:32;;;;;;;;;;;18.80;36.20;;;;;;499843;237;1219;-72
2021/03/09 06:38:34;;;;;;;;;;;18.80;36.10;;;;;;499867;237;1035;-72
2021/03/09 06:40:35;;;;;;;;;;;18.80;36.20;;;;;;499863;237;1713;-72
2021/03/09 06:42:37;;;;;;;;;;;18.90;36.20;;;;;;499789;237;1452;-72
2021/03/09 06:44:38;;;;;;;;;;;18.80;36.30;;;;;;499867;237;2164;-72
2021/03/09 06:46:39;;;;;;;;;;;18.80;35.70;;;;;;499924;237;1208;-72
2021/03/09 06:48:40;;;;;;;;;;;18.90;36.20;;;;;;499813;237;1159;-72
2021/03/09 06:50:41;;;;;;;;;;;18.70;36.30;;;;;;499762;237;1191;-72
2021/03/09 06:52:43;;;;;;;;;;;18.50;36.70;;;;;;499865;237;1169;-72
2021/03/09 06:54:44;;;;;;;;;;;18.30;37.10;;;;;;499828;237;1068;-72
2021/03/09 06:56:45;;;;;;;;;;;18.20;37.40;;;;;;499866;237;1356;-72
2021/03/09 06:58:47;;;;;;;;;;;18.10;37.50;;;;;;499870;237;1029;-72
2021/03/09 07:00:48;;;;;;;;;;;18.00;37.70;;;;;;499847;237;1303;-72
2021/03/09 07:02:49;;;;;;;;;;;17.90;37.80;;;;;;499735;237;1101;-72
2021/03/09 07:04:50;;;;;;;;;;;17.90;38.00;;;;;;499874;237;2179;-72
2021/03/09 07:06:52;;;;;;;;;;;17.80;38.00;;;;;;499806;237;1145;-72
2021/03/09 07:08:53;;;;;;;;;;;17.80;38.00;;;;;;499743;237;1001;-72
2021/03/09 07:10:54;;;;;;;;;;;17.80;38.00;;;;;;499789;237;1117;-72
2021/03/09 07:12:56;;;;;;;;;;;17.70;37.80;;;;;;499854;237;1054;-72
2021/03/09 07:14:57;;;;;;;;;;;17.70;38.20;;;;;;499686;237;1053;-72
2021/03/09 07:16:58;;;;;;;;;;;17.70;38.10;;;;;;499685;237;1203;-72
2021/03/09 07:19:00;;;;;;;;;;;17.70;38.30;;;;;;499775;237;1185;-72
2021/03/09 07:21:01;;;;;;;;;;;17.60;38.20;;;;;;499684;237;1210;-73
2021/03/09 07:23:02;;;;;;;;;;;17.60;38.30;;;;;;499719;237;1098;-73
2021/03/09 07:25:04;;;;;;;;;;;17.60;38.30;;;;;;499667;237;2179;-73
2021/03/09 07:27:05;;;;;;;;;;;17.60;38.30;;;;;;499659;237;1157;-72
2021/03/09 07:29:06;;;;;;;;;;;17.60;38.30;;;;;;499526;237;998;-73
2021/03/09 07:31:07;;;;;;;;;;;17.50;38.40;;;;;;499607;237;1579;-72
2021/03/09 07:33:09;;;;;;;;;;;17.60;38.30;;;;;;499583;237;1030;-72
2021/03/09 07:35:10;;;;;;;;;;;17.60;38.20;;;;;;499579;237;1101;-72
2021/03/09 07:37:11;;;;;;;;;;;17.60;38.20;;;;;;499628;237;1335;-72
2021/03/09 07:39:12;;;;;;;;;;;17.60;38.20;;;;;;499456;237;1004;-72
2021/03/09 07:41:14;;;;;;;;;;;17.50;38.20;;;;;;499359;237;1001;-73
2021/03/09 07:43:15;;;;;;;;;;;17.60;38.20;;;;;;499392;237;1054;-73
2021/03/09 07:45:16;;;;;;;;;;;17.50;38.20;;;;;;499540;237;2192;-73
2021/03/09 07:47:18;;;;;;;;;;;17.60;38.20;;;;;;499600;237;1063;-73
2021/03/09 07:49:20;;;;;;;;;;;17.60;38.20;;;;;;499470;237;1168;-73
2021/03/09 07:51:21;;;;;;;;;;;17.60;38.10;;;;;;499495;237;1087;-73
2021/03/09 07:53:23;;;;;;;;;;;17.60;38.10;;;;;;499559;237;1061;-73
2021/03/09 07:55:24;;;;;;;;;;;17.60;37.90;;;;;;499660;237;1095;-72
2021/03/09 07:57:25;;;;;;;;;;;17.60;38.10;;;;;;499537;237;1064;-73
2021/03/09 07:59:26;;;;;;;;;;;17.60;38.10;;;;;;499648;237;1052;-72
2021/03/09 08:01:28;;;;;;;;;;;17.60;38.20;;;;;;499281;237;1171;-72
2021/03/09 08:03:30;;;;;;;;;;;17.60;38.00;;;;;;499218;237;2183;-72
2021/03/09 08:05:30;;;;;;;;;;;17.60;38.00;;;;;;499421;237;2214;-72
2021/03/09 08:07:31;;;;;;;;;;;17.60;38.00;;;;;;499487;237;1029;-73
2021/03/09 08:09:33;;;;;;;;;;;17.60;38.10;;;;;;499356;237;1013;-73
2021/03/09 08:11:34;;;;;;;;;;;17.60;38.10;;;;;;499220;237;1126;-73
2021/03/09 08:13:35;;;;;;;;;;;17.60;38.10;;;;;;499491;237;1025;-73
2021/03/09 08:15:37;;;;;;;;;;;17.50;38.20;;;;;;499400;237;1168;-72
2021/03/09 08:17:38;;;;;;;;;;;17.50;38.20;;;;;;499578;237;1061;-72
2021/03/09 08:19:39;;;;;;;;;;;17.50;38.20;;;;;;499430;237;1168;-73
2021/03/09 08:21:41;;;;;;;;;;;17.60;38.20;;;;;;499512;237;1294;-73
2021/03/09 08:23:42;;;;;;;;;;;17.60;38.00;;;;;;499536;237;2500;-72
2021/03/09 08:25:43;;;;;;;;;;;17.60;38.00;;;;;;499343;237;1217;-72
2021/03/09 08:27:44;;;;;;;;;;;17.60;37.80;;;;;;499462;237;1431;-72
2021/03/09 08:29:46;;;;;;;;;;;17.60;37.70;;;;;;499366;237;1051;-72
2021/03/09 08:31:47;;;;;;;;;;;17.60;37.90;;;;;;499439;237;1094;-72
2021/03/09 08:33:48;;;;;;;;;;;17.60;38.00;;;;;;499299;237;1027;-72
2021/03/09 08:35:50;;;;;;;;;;;17.60;38.10;;;;;;499109;237;1244;-72
2021/03/09 08:37:51;;;;;;;;;;;17.60;38.10;;;;;;499700;237;1326;-72
2021/03/09 08:39:52;;;;;;;;;;;17.70;38.20;;;;;;499601;237;1106;-72
2021/03/09 08:41:54;;;;;;;;;;;17.60;38.20;;;;;;499392;237;1109;-72
2021/03/09 08:43:55;;;;;;;;;;;17.70;38.20;;;;;;499417;237;2179;-73
2021/03/09 08:45:56;;;;;;;;;;;17.60;38.30;;;;;;499271;237;1084;-72
2021/03/09 08:47:58;;;;;;;;;;;17.60;38.30;;;;;;498994;237;1090;-72
2021/03/09 08:49:59;;;;;;;;;;;17.60;38.20;;;;;;499312;237;1121;-72
2021/03/09 08:52:00;;;;;;;;;;;17.60;38.30;;;;;;499276;237;1157;-72
2021/03/09 08:54:01;;;;;;;;;;;17.60;38.30;;;;;;499304;237;1099;-72
2021/03/09 08:56:03;;;;;;;;;;;17.60;38.30;;;;;;499443;237;1158;-72
2021/03/09 08:58:04;;;;;;;;;;;17.60;38.30;;;;;;499391;237;1068;-73
2021/03/09 09:00:05;;;;;;;;;;;17.60;38.20;;;;;;499517;237;1052;-72
2021/03/09 09:02:07;;;;;;;;;;;17.70;38.30;;;;;;499456;237;1089;-73
2021/03/09 09:04:08;;;;;;;;;;;17.70;38.30;;;;;;499374;237;2168;-72
2021/03/09 09:06:09;;;;;;;;;;;17.70;38.20;;;;;;499522;237;1199;-72
2021/03/09 09:08:10;;;;;;;;;;;17.70;38.10;;;;;;499532;237;1051;-72
2021/03/09 09:10:12;;;;;;;;;;;17.70;38.10;;;;;;499416;237;1036;-73
2021/03/09 09:12:13;;;;;;;;;;;17.70;38.10;;;;;;499471;237;1053;-72
2021/03/09 09:14:14;;;;;;;;;;;17.70;38.10;;;;;;499263;237;1059;-72
2021/03/09 09:16:16;;;;;;;;;;;17.70;38.10;;;;;;499310;237;1303;-72
2021/03/09 09:18:17;;;;;;;;;;;17.80;38.10;;;;;;499317;237;1024;-72
2021/03/09 09:20:18;;;;;;;;;;;17.70;38.00;;;;;;499143;237;1160;-72
2021/03/09 09:22:19;;;;;;;;;;;17.80;38.10;;;;;;499109;237;1110;-72
2021/03/09 09:24:21;;;;;;;;;;;17.80;38.00;;;;;;499120;237;2180;-72
2021/03/09 09:26:22;;;;;;;;;;;17.80;38.00;;;;;;499159;237;1275;-73
2021/03/09 09:28:23;;;;;;;;;;;17.90;38.00;;;;;;499219;237;1066;-72
2021/03/09 09:30:24;;;;;;;;;;;17.90;38.00;;;;;;499508;237;1068;-72
2021/03/09 09:32:26;;;;;;;;;;;17.90;37.80;;;;;;499522;237;1636;-72
2021/03/09 09:34:27;;;;;;;;;;;17.90;37.80;;;;;;499342;237;2223;-72
2021/03/09 09:36:28;;;;;;;;;;;18.00;37.80;;;;;;499349;237;1307;-72
2021/03/09 09:38:30;;;;;;;;;;;18.00;37.80;;;;;;499340;237;1055;-73
2021/03/09 09:40:31;;;;;;;;;;;18.00;37.70;;;;;;499297;237;1394;-73
2021/03/09 09:42:33;;;;;;;;;;;18.00;37.50;;;;;;499263;237;1035;-72
2021/03/09 09:44:34;;;;;;;;;;;18.00;37.80;;;;;;499386;237;2112;-73
2021/03/09 09:46:35;;;;;;;;;;;18.00;37.90;;;;;;499631;237;1228;-72
2021/03/09 09:48:36;;;;;;;;;;;18.00;38.00;;;;;;499445;237;1079;-73
2021/03/09 09:50:38;;;;;;;;;;;18.00;37.90;;;;;;499447;237;1304;-72
2021/03/09 09:52:39;;;;;;;;;;;18.10;37.90;;;;;;499492;237;1141;-72
2021/03/09 09:54:40;;;;;;;;;;;18.10;37.80;;;;;;499445;237;1041;-72
2021/03/09 09:56:41;;;;;;;;;;;18.20;37.80;;;;;;499381;237;1195;-72
2021/03/09 09:58:43;;;;;;;;;;;18.20;37.80;;;;;;499500;237;1072;-72
2021/03/09 10:00:44;;;;;;;;;;;18.20;37.70;;;;;;499321;237;1281;-72
2021/03/09 10:02:45;;;;;;;;;;;18.20;37.70;;;;;;500089;237;1039;-72
2021/03/09 10:04:47;;;;;;;;;;;18.20;37.70;;;;;;499198;237;2172;-72
2021/03/09 10:06:48;;;;;;;;;;;18.30;37.80;;;;;;499504;237;1189;-72
2021/03/09 10:08:50;;;;;;;;;;;18.30;37.70;;;;;;499373;237;1252;-73
2021/03/09 10:10:51;;;;;;;;;;;18.30;37.70;;;;;;499269;237;1291;-72
2021/03/09 10:12:52;;;;;;;;;;;18.40;37.70;;;;;;499496;237;1177;-72
2021/03/09 10:14:54;;;;;;;;;;;18.40;37.60;;;;;;499207;237;1013;-72
2021/03/09 10:16:55;;;;;;;;;;;18.50;37.60;;;;;;499264;237;2204;-72
2021/03/09 10:18:56;;;;;;;;;;;18.60;37.60;;;;;;499249;237;1029;-72
2021/03/09 10:20:58;;;;;;;;;;;18.70;37.50;;;;;;499188;237;1196;-72
2021/03/09 10:22:59;;;;;;;;;;;18.70;37.40;;;;;;499263;237;1067;-72
2021/03/09 10:25:00;;;;;;;;;;;18.80;37.40;;;;;;499475;237;2180;-72
2021/03/09 10:27:02;;;;;;;;;;;18.90;37.30;;;;;;499373;237;1127;-72
2021/03/09 10:29:03;;;;;;;;;;;18.90;37.10;;;;;;499412;237;1045;-72
2021/03/09 10:31:04;;;;;;;;;;;19.00;37.00;;;;;;499486;237;1124;-73
2021/03/09 10:33:06;;;;;;;;;;;19.10;37.00;;;;;;499531;237;1157;-72
2021/03/09 10:35:07;;;;;;;;;;;19.20;36.90;;;;;;499456;237;1168;-72
2021/03/09 10:37:08;;;;;;;;;;;19.30;36.80;;;;;;499487;237;1158;-72
2021/03/09 10:39:10;;;;;;;;;;;19.30;36.70;;;;;;499531;237;1039;-72
2021/03/09 10:41:11;;;;;;;;;;;19.40;36.30;;;;;;499406;237;1073;-72
2021/03/09 10:43:12;;;;;;;;;;;19.40;36.50;;;;;;499347;237;1101;-72
2021/03/09 10:45:14;;;;;;;;;;;19.50;36.50;;;;;;499351;237;2137;-72
2021/03/09 10:47:15;;;;;;;;;;;19.50;36.50;;;;;;499415;237;1055;-73
2021/03/09 10:49:16;;;;;;;;;;;19.60;36.50;;;;;;499040;237;1078;-72
2021/03/09 10:51:17;;;;;;;;;;;19.60;36.40;;;;;;499013;237;1162;-72
2021/03/09 10:53:19;;;;;;;;;;;19.70;36.40;;;;;;498978;238;1119;-72
2021/03/09 10:55:20;;;;;;;;;;;19.80;36.40;;;;;;499240;237;1014;-72
2021/03/09 10:57:21;;;;;;;;;;;19.80;36.30;;;;;;499485;237;1146;-72
2021/03/09 10:59:22;;;;;;;;;;;19.80;36.10;;;;;;499110;237;1046;-72
2021/03/09 11:01:24;;;;;;;;;;;19.90;36.10;;;;;;499239;237;1173;-72
2021/03/09 11:03:25;;;;;;;;;;;19.90;36.00;;;;;;499178;237;1062;-73
2021/03/09 11:05:27;;;;;;;;;;;20.00;35.90;;;;;;499252;237;2188;-72
2021/03/09 11:07:28;;;;;;;;;;;20.10;36.00;;;;;;499308;237;1188;-72
2021/03/09 11:09:29;;;;;;;;;;;20.10;35.80;;;;;;499312;237;1043;-72
2021/03/09 11:11:30;;;;;;;;;;;20.20;35.80;;;;;;499440;237;1335;-72
2021/03/09 11:13:32;;;;;;;;;;;20.20;35.60;;;;;;499295;237;1091;-72
2021/03/09 11:15:33;;;;;;;;;;;20.20;35.60;;;;;;499265;237;1229;-72
2021/03/09 11:17:34;;;;;;;;;;;20.30;35.60;;;;;;499132;237;1250;-72
2021/03/09 11:19:36;;;;;;;;;;;20.30;35.50;;;;;;499421;237;1000;-72
2021/03/09 11:21:37;;;;;;;;;;;20.40;35.40;;;;;;499467;237;1189;-73
2021/03/09 11:23:39;;;;;;;;;;;20.40;35.30;;;;;;499518;237;1064;-73
2021/03/09 11:25:40;;;;;;;;;;;20.50;35.20;;;;;;499257;237;2120;-73
2021/03/09 11:27:41;;;;;;;;;;;20.60;34.90;;;;;;499525;237;1117;-73
2021/03/09 11:29:42;;;;;;;;;;;20.60;35.10;;;;;;499311;237;1055;-72
2021/03/09 11:31:43;;;;;;;;;;;20.70;35.10;;;;;;499522;237;1208;-73
2021/03/09 11:33:45;;;;;;;;;;;20.70;34.90;;;;;;499244;237;1043;-73
2021/03/09 11:35:46;;;;;;;;;;;20.80;34.90;;;;;;499337;237;1129;-73
2021/03/09 11:37:47;;;;;;;;;;;20.80;34.90;;;;;;499353;237;1105;-72
2021/03/09 11:39:48;;;;;;;;;;;20.80;34.80;;;;;;499378;237;1100;-72
2021/03/09 11:41:50;;;;;;;;;;;20.90;34.70;;;;;;499337;237;1199;-72
2021/03/09 11:43:51;;;;;;;;;;;21.00;34.70;;;;;;499270;237;1039;-72
2021/03/09 11:45:53;;;;;;;;;;;21.00;34.40;;;;;;499226;237;2184;-73
2021/03/09 11:47:54;;;;;;;;;;;21.10;34.30;;;;;;499492;237;1166;-73
2021/03/09 11:49:55;;;;;;;;;;;21.20;34.20;;;;;;499351;237;1039;-72
2021/03/09 11:51:56;;;;;;;;;;;21.30;34.10;;;;;;499244;237;1248;-73
2021/03/09 11:53:58;;;;;;;;;;;21.30;34.00;;;;;;499329;237;1095;-73
2021/03/09 11:55:59;;;;;;;;;;;21.50;33.80;;;;;;499302;237;1499;-73